Time;durP1;ratioP1;P1;durP2;ratioP2;P2;SDS_P1;SDS_P2;PMS_P1;PMS_P2;Temp;Humidity;BMP_temperature;BMP_pressure;BME280_temperature;BME280_humidity;BME280_pressure;Samples;Min_cycle;Max_cycle;Signal;HPM_P1;HPM_P2
2024/03/15 00:02:16;;;;;;;;;0.00;0.00;;;;;18.88;100.00;100748.78;6271358;22;45557;-82
2024/03/15 00:04:42;;;;;;;;;0.00;0.00;;;;;18.92;100.00;100747.66;6245959;22;45427;-82
2024/03/15 00:07:07;;;;;;;;;0.00;0.00;;;;;18.95;100.00;100749.25;6246709;22;45325;-82
2024/03/15 00:09:33;;;;;;;;;0.00;0.00;;;;;19.06;100.00;100754.69;6244705;22;47987;-82
2024/03/15 00:12:01;;;;;;;;;0.00;0.00;;;;;19.05;100.00;100758.28;6272968;22;45366;-83
2024/03/15 00:14:29;;;;;;;;;4.50;4.50;;;;;19.06;100.00;100759.13;6248357;22;45324;-82
2024/03/15 00:16:55;;;;;;;;;0.00;0.00;;;;;19.07;100.00;100764.28;6273826;22;45238;-83
2024/03/15 00:19:21;;;;;;;;;0.00;0.00;;;;;19.02;100.00;100763.75;6271726;22;45270;-82
2024/03/15 00:21:46;;;;;;;;;0.00;0.00;;;;;19.05;100.00;100760.06;6273364;22;45241;-82
2024/03/15 00:24:13;;;;;;;;;0.00;0.00;;;;;19.09;100.00;100764.19;6273680;22;45422;-82
2024/03/15 00:26:39;;;;;;;;;0.00;0.00;;;;;19.09;100.00;100759.78;6273676;22;45476;-82
2024/03/15 00:29:04;;;;;;;;;0.00;0.00;;;;;19.04;100.00;100764.50;6272813;22;46448;-82
2024/03/15 00:31:31;;;;;;;;;0.00;0.00;;;;;18.93;100.00;100772.25;6272473;22;64923;-82
2024/03/15 00:33:57;;;;;;;;;0.00;0.00;;;;;19.01;100.00;100750.66;6272322;22;45503;-81
2024/03/15 00:36:23;;;;;;;;;1.00;1.00;;;;;18.91;100.00;100767.06;6246190;22;45298;-82
2024/03/15 00:38:48;;;;;;;;;0.00;0.00;;;;;18.93;100.00;100762.53;6272886;22;45537;-82
2024/03/15 00:41:15;;;;;;;;;0.00;0.00;;;;;19.00;100.00;100767.41;6245781;22;45231;-81
2024/03/15 00:43:41;;;;;;;;;0.00;0.00;;;;;18.90;100.00;100768.00;6274868;22;45559;-82
2024/03/15 00:46:06;;;;;;;;;0.00;0.00;;;;;18.94;100.00;100758.97;6273149;22;45426;-82
2024/03/15 00:48:32;;;;;;;;;0.00;0.00;;;;;18.86;100.00;100771.78;6274693;22;45426;-81
2024/03/15 00:50:57;;;;;;;;;0.00;0.00;;;;;19.07;100.00;100768.72;6247007;22;45410;-81
2024/03/15 00:53:23;;;;;;;;;0.00;0.00;;;;;18.99;100.00;100774.50;6219734;22;45174;-82
2024/03/15 00:55:49;;;;;;;;;0.00;0.00;;;;;18.97;100.00;100776.38;6272526;22;58077;-82
2024/03/15 00:58:14;;;;;;;;;0.00;0.00;;;;;18.95;100.00;100770.38;6272696;22;46242;-82
2024/03/15 01:00:40;;;;;;;;;0.00;0.00;;;;;18.95;100.00;100760.66;6273652;22;45721;-81
2024/03/15 01:03:05;;;;;;;;;0.00;0.00;;;;;19.00;100.00;100762.16;6272693;22;45482;-82
2024/03/15 01:05:31;;;;;;;;;0.00;0.00;;;;;18.94;100.00;100768.66;6245146;22;56492;-82
2024/03/15 01:07:56;;;;;;;;;0.00;0.00;;;;;18.93;100.00;100769.63;6272836;22;46962;-82
2024/03/15 01:10:22;;;;;;;;;0.00;0.00;;;;;18.91;100.00;100763.59;6245232;22;45375;-82
2024/03/15 01:12:47;;;;;;;;;0.00;0.00;;;;;18.87;100.00;100770.84;6272144;22;59940;-82
2024/03/15 01:15:12;;;;;;;;;0.00;0.00;;;;;19.05;100.00;100767.97;6272481;22;56725;-82
2024/03/15 01:17:38;;;;;;;;;0.00;0.00;;;;;19.27;100.00;100762.16;6218834;22;50715;-81
2024/03/15 01:20:08;;;;;;;;;0.00;0.00;;;;;19.28;100.00;100759.44;6272444;22;45247;-81
2024/03/15 01:22:34;;;;;;;;;0.00;0.00;;;;;19.25;100.00;100767.53;6246433;22;45272;-82
2024/03/15 01:24:59;;;;;;;;;0.00;0.00;;;;;19.23;100.00;100761.53;6272960;22;45451;-81
2024/03/15 01:27:25;;;;;;;;;0.00;0.00;;;;;19.25;100.00;100756.97;6272536;22;45309;-81
2024/03/15 01:29:53;;;;;;;;;0.00;0.00;;;;;19.23;100.00;100744.84;6271455;22;68342;-82
2024/03/15 01:32:18;;;;;;;;;0.00;0.00;;;;;19.26;100.00;100739.34;6272341;22;45132;-82
2024/03/15 01:34:44;;;;;;;;;0.00;0.00;;;;;19.25;100.00;100738.50;6273381;22;45220;-81
2024/03/15 01:37:09;;;;;;;;;0.00;0.00;;;;;19.13;100.00;100734.06;6245095;22;47115;-82
2024/03/15 01:39:34;;;;;;;;;0.00;0.00;;;;;19.37;100.00;100738.66;6271705;22;61205;-82
2024/03/15 01:42:00;;;;;;;;;0.00;0.00;;;;;19.49;100.00;100743.13;6271755;22;59123;-82
2024/03/15 01:44:25;;;;;;;;;0.00;0.00;;;;;19.07;100.00;100744.97;6271097;22;45469;-81
2024/03/15 01:46:51;;;;;;;;;0.00;0.00;;;;;18.98;100.00;100740.31;6246948;22;45289;-82
2024/03/15 01:49:17;;;;;;;;;1.00;0.00;;;;;18.93;100.00;100741.44;6246752;22;45283;-82
2024/03/15 01:51:43;;;;;;;;;0.00;0.00;;;;;18.76;100.00;100742.50;6245900;22;45365;-82
2024/03/15 01:54:10;;;;;;;;;0.00;0.00;;;;;18.73;100.00;100733.94;6272688;22;45397;-82
2024/03/15 01:56:36;;;;;;;;;0.00;0.00;;;;;18.72;100.00;100738.34;6245687;22;46070;-82
2024/03/15 01:59:01;;;;;;;;;0.00;0.00;;;;;18.62;100.00;100739.03;6272060;22;45290;-81
2024/03/15 02:01:26;;;;;;;;;0.00;0.00;;;;;18.66;100.00;100733.44;6244927;22;45367;-82
2024/03/15 02:03:56;;;;;;;;;0.00;0.00;;;;;18.84;100.00;100734.13;6272269;22;57537;-82
2024/03/15 02:06:21;;;;;;;;;0.00;0.00;;;;;18.84;100.00;100728.84;6220410;22;46648;-82
2024/03/15 02:08:46;;;;;;;;;0.00;0.00;;;;;18.69;100.00;100733.28;6272682;22;45244;-81
2024/03/15 02:11:12;;;;;;;;;0.00;0.00;;;;;18.66;100.00;100716.78;6247577;22;45256;-82
2024/03/15 02:13:37;;;;;;;;;0.00;0.00;;;;;18.67;100.00;100724.63;6248378;22;45182;-81
2024/03/15 02:16:03;;;;;;;;;0.00;0.00;;;;;18.66;100.00;100736.09;6272787;22;47069;-81
2024/03/15 02:18:28;;;;;;;;;0.00;0.00;;;;;18.69;100.00;100728.00;6244567;22;45334;-81
2024/03/15 02:20:54;;;;;;;;;0.00;0.00;;;;;18.67;100.00;100735.16;6246689;22;45260;-81
2024/03/15 02:23:19;;;;;;;;;0.00;0.00;;;;;18.66;100.00;100729.97;6280632;22;61676;-82
2024/03/15 02:25:44;;;;;;;;;0.00;0.00;;;;;18.44;100.00;100754.19;6301627;22;69404;-80
2024/03/15 02:28:10;;;;;;;;;0.00;0.00;;;;;18.67;100.00;100743.06;6254552;22;49775;-82
2024/03/15 02:30:35;;;;;;;;;0.00;0.00;;;;;18.67;100.00;100732.53;6273147;22;45217;-81
2024/03/15 02:33:00;;;;;;;;;0.00;0.00;;;;;18.67;100.00;100742.22;6274131;22;67399;-81
2024/03/15 02:35:26;;;;;;;;;0.00;0.00;;;;;18.57;100.00;100750.72;6245365;22;62576;-81
2024/03/15 02:37:52;;;;;;;;;0.00;0.00;;;;;18.74;100.00;100749.66;6245477;22;68342;-82
2024/03/15 02:40:17;;;;;;;;;0.00;0.00;;;;;18.74;100.00;100743.53;6250668;22;45327;-81
2024/03/15 02:42:42;;;;;;;;;0.00;0.00;;;;;18.76;100.00;100739.84;6274602;22;58154;-81
2024/03/15 02:45:08;;;;;;;;;0.00;0.00;;;;;18.66;100.00;100741.38;6272021;22;69841;-82
2024/03/15 02:47:36;;;;;;;;;0.00;0.00;;;;;18.67;100.00;100745.72;6274262;22;67761;-82
2024/03/15 02:50:02;;;;;;;;;0.00;0.00;;;;;18.69;100.00;100742.97;6272598;22;45275;-82
2024/03/15 02:52:28;;;;;;;;;0.00;0.00;;;;;18.65;100.00;100737.06;6274054;22;45304;-82
2024/03/15 02:54:54;;;;;;;;;0.00;0.00;;;;;19.02;100.00;100747.94;6275700;22;45255;-82
2024/03/15 02:57:20;;;;;;;;;0.00;0.00;;;;;19.05;100.00;100745.06;6273668;22;45483;-82
2024/03/15 02:59:45;;;;;;;;;0.00;0.00;;;;;19.01;100.00;100743.59;6273155;22;45323;-81
2024/03/15 03:02:11;;;;;;;;;0.00;0.00;;;;;18.81;100.00;100751.94;6275193;22;45578;-82
2024/03/15 03:04:36;;;;;;;;;0.00;0.00;;;;;18.99;100.00;100745.47;6246511;22;45299;-82
2024/03/15 03:07:04;;;;;;;;;0.00;0.00;;;;;18.86;100.00;100744.56;6272933;22;45301;-82
2024/03/15 03:09:29;;;;;;;;;0.00;0.00;;;;;18.82;100.00;100745.72;6246788;22;45203;-83
2024/03/15 03:11:56;;;;;;;;;0.00;0.00;;;;;18.77;100.00;100752.06;6246323;22;45575;-82
2024/03/15 03:14:21;;;;;;;;;0.00;0.00;;;;;18.79;100.00;100748.50;6246153;22;45766;-82
2024/03/15 03:16:47;;;;;;;;;0.00;0.00;;;;;18.77;100.00;100744.16;6220457;22;45331;-82
2024/03/15 03:19:16;;;;;;;;;0.00;0.00;;;;;19.09;100.00;100749.25;6273073;22;62056;-82
2024/03/15 03:21:43;;;;;;;;;0.00;0.00;;;;;19.25;100.00;100745.59;6272805;22;45638;-81
2024/03/15 03:24:08;;;;;;;;;0.00;0.00;;;;;19.24;100.00;100741.25;6273111;22;46952;-81
2024/03/15 03:26:34;;;;;;;;;0.00;0.00;;;;;19.18;100.00;100746.94;6219624;22;70451;-81
2024/03/15 03:28:59;;;;;;;;;0.00;0.00;;;;;19.09;100.00;100743.09;6271983;22;57407;-82
2024/03/15 03:31:25;;;;;;;;;0.00;0.00;;;;;19.07;100.00;100752.91;6274000;22;45419;-82
2024/03/15 03:33:50;;;;;;;;;0.00;0.00;;;;;19.04;100.00;100746.03;6273307;22;47026;-82
2024/03/15 03:36:15;;;;;;;;;0.00;0.00;;;;;19.01;100.00;100743.59;6273436;22;45532;-82
2024/03/15 03:38:42;;;;;;;;;0.00;0.00;;;;;19.03;100.00;100751.41;6273371;22;45286;-81
2024/03/15 03:41:08;;;;;;;;;0.00;0.00;;;;;19.03;100.00;100754.03;6273725;22;45453;-82
2024/03/15 03:43:34;;;;;;;;;0.00;0.00;;;;;18.95;100.00;100760.66;6272806;22;45396;-82
2024/03/15 03:45:59;;;;;;;;;0.00;0.00;;;;;18.99;100.00;100757.84;6273213;22;45436;-82
2024/03/15 03:48:25;;;;;;;;;0.00;0.00;;;;;19.01;100.00;100755.94;6272765;22;61424;-82
2024/03/15 03:50:50;;;;;;;;;0.00;0.00;;;;;19.05;100.00;100758.28;6273488;22;45294;-82
2024/03/15 03:53:15;;;;;;;;;0.00;0.00;;;;;19.00;100.00;100755.09;6273229;22;45404;-83
2024/03/15 03:55:41;;;;;;;;;0.00;0.00;;;;;19.03;100.00;100761.97;6270180;22;66071;-82
2024/03/15 03:58:11;;;;;;;;;0.00;0.00;;;;;19.03;100.00;100767.25;6246305;22;45417;-82
2024/03/15 04:00:37;;;;;;;;;0.00;0.00;;;;;19.05;100.00;100766.19;6273498;22;45343;-82
2024/03/15 04:03:03;;;;;;;;;0.00;0.00;;;;;19.16;100.00;100765.50;6272517;22;47072;-81
2024/03/15 04:05:29;;;;;;;;;0.00;0.00;;;;;19.20;100.00;100764.34;6245676;22;45448;-82
2024/03/15 04:07:55;;;;;;;;;0.00;0.00;;;;;19.21;100.00;100767.84;6246066;22;45286;-82
2024/03/15 04:10:21;;;;;;;;;0.00;0.00;;;;;19.15;100.00;100772.56;6246282;22;45292;-81
2024/03/15 04:12:46;;;;;;;;;0.00;0.00;;;;;19.07;100.00;100782.75;6245898;22;45392;-82
2024/03/15 04:15:11;;;;;;;;;0.00;0.00;;;;;19.11;100.00;100780.78;6272275;22;58546;-81
2024/03/15 04:17:38;;;;;;;;;0.00;0.00;;;;;19.17;100.00;100782.16;6273870;22;45327;-82
2024/03/15 04:20:07;;;;;;;;;0.00;0.00;;;;;19.17;100.00;100775.13;6273804;22;45495;-82
2024/03/15 04:22:32;;;;;;;;;0.00;0.00;;;;;19.11;100.00;100776.38;6246359;22;46198;-82
2024/03/15 04:24:59;;;;;;;;;0.00;0.00;;;;;19.10;100.00;100772.00;6272143;22;64279;-82
2024/03/15 04:27:25;;;;;;;;;0.00;0.00;;;;;19.10;100.00;100772.00;6245862;22;45353;-82
2024/03/15 04:29:51;;;;;;;;;0.00;0.00;;;;;19.11;100.00;100765.81;6272793;22;45510;-82
2024/03/15 04:32:19;;;;;;;;;0.00;0.00;;;;;19.11;100.00;100765.81;6245817;22;46507;-82
2024/03/15 04:34:47;;;;;;;;;0.00;0.00;;;;;19.05;100.00;100782.00;6273219;22;45274;-82
2024/03/15 04:37:15;;;;;;;;;0.00;0.00;;;;;19.11;100.00;100775.50;6273856;22;45153;-82
2024/03/15 04:39:41;;;;;;;;;0.00;0.00;;;;;19.02;100.00;100787.50;6272954;22;45287;-81
2024/03/15 04:42:06;;;;;;;;;0.00;0.00;;;;;19.09;100.00;100785.31;6273022;22;45303;-82
2024/03/15 04:44:36;;;;;;;;;0.00;0.00;;;;;19.09;100.00;100785.31;6245878;22;45449;-82
2024/03/15 04:47:02;;;;;;;;;0.00;0.00;;;;;19.09;100.00;100783.53;6272717;22;45318;-82
2024/03/15 04:49:28;;;;;;;;;0.00;0.00;;;;;19.10;100.00;100784.38;6246173;22;45256;-83
2024/03/15 04:51:55;;;;;;;;;0.00;0.00;;;;;19.08;100.00;100795.00;6244856;22;45437;-81
2024/03/15 04:54:21;;;;;;;;;0.00;0.00;;;;;19.11;100.00;100786.03;6272889;22;45446;-81
2024/03/15 04:56:46;;;;;;;;;0.00;0.00;;;;;19.18;100.00;100792.63;6272599;22;45334;-82
2024/03/15 04:59:12;;;;;;;;;0.00;0.00;;;;;19.10;100.00;100795.75;6273651;22;45449;-83
2024/03/15 05:01:37;;;;;;;;;0.00;0.00;;;;;19.06;100.00;100794.28;6272354;22;45472;-81
2024/03/15 05:04:03;;;;;;;;;0.00;0.00;;;;;19.05;100.00;100799.63;6245936;22;45377;-80
2024/03/15 05:06:29;;;;;;;;;0.00;0.00;;;;;18.58;100.00;100807.75;6273013;22;45286;-82
2024/03/15 05:08:54;;;;;;;;;0.00;0.00;;;;;18.68;100.00;100786.94;6245824;22;45370;-83
2024/03/15 05:11:19;;;;;;;;;0.00;0.00;;;;;18.69;100.00;100786.00;6244194;22;68825;-82
2024/03/15 05:13:45;;;;;;;;;0.00;0.00;;;;;18.60;100.00;100796.28;6245556;22;45307;-82
2024/03/15 05:16:14;;;;;;;;;0.00;0.00;;;;;18.68;100.00;100780.81;6271167;22;45206;-82
2024/03/15 05:18:40;;;;;;;;;0.00;0.00;;;;;18.61;100.00;100793.56;6245958;22;45316;-83
2024/03/15 05:21:06;;;;;;;;;0.00;0.00;;;;;18.49;100.00;100796.94;6245431;22;45351;-82
2024/03/15 05:23:31;;;;;;;;;0.00;0.00;;;;;18.48;100.00;100796.09;6272208;22;45294;-82
2024/03/15 05:25:56;;;;;;;;;0.00;0.00;;;;;18.38;100.00;100795.78;6273569;22;45299;-82
2024/03/15 05:28:22;;;;;;;;;0.00;0.00;;;;;18.35;100.00;100792.50;6245722;22;53489;-82
2024/03/15 05:30:47;;;;;;;;;0.00;0.00;;;;;18.39;100.00;100788.75;6245573;22;45405;-82
2024/03/15 05:33:12;;;;;;;;;0.00;0.00;;;;;18.35;100.00;100789.88;6272899;22;45349;-82
2024/03/15 05:35:40;;;;;;;;;0.00;0.00;;;;;18.43;100.00;100787.59;6273271;22;45282;-82
2024/03/15 05:38:05;;;;;;;;;0.00;0.00;;;;;18.35;100.00;100793.34;6245804;22;45446;-82
2024/03/15 05:40:31;;;;;;;;;0.00;0.00;;;;;18.29;100.00;100791.06;6245489;22;48064;-82
2024/03/15 05:42:58;;;;;;;;;0.00;0.00;;;;;18.47;100.00;100794.38;6271802;22;61941;-82
2024/03/15 05:45:24;;;;;;;;;0.00;0.00;;;;;18.62;100.00;100789.13;6272969;22;45224;-82
2024/03/15 05:47:50;;;;;;;;;0.00;0.00;;;;;18.66;100.00;100793.25;6272918;22;45547;-83
2024/03/15 05:50:16;;;;;;;;;0.00;0.00;;;;;18.70;100.00;100790.34;6271854;22;46912;-82
2024/03/15 05:52:41;;;;;;;;;0.00;0.00;;;;;18.65;100.00;100800.31;6272696;22;45298;-82
2024/03/15 05:55:08;;;;;;;;;0.00;0.00;;;;;18.55;100.00;100801.81;6272764;22;45673;-82
2024/03/15 05:57:34;;;;;;;;;0.00;0.00;;;;;18.54;100.00;100806.25;6245325;22;45481;-81
2024/03/15 06:00:10;;;;;;;;;0.00;0.00;;;;;18.47;100.00;100818.09;6245353;22;46035;-80
2024/03/15 06:02:35;;;;;;;;;0.00;0.00;;;;;18.30;100.00;100800.69;6247771;22;45251;-82
2024/03/15 06:05:01;;;;;;;;;0.00;0.00;;;;;18.24;100.00;100806.31;6244244;22;45363;-81
2024/03/15 06:07:26;;;;;;;;;0.00;0.00;;;;;18.24;100.00;100818.63;6273346;22;45200;-82
2024/03/15 06:09:51;;;;;;;;;0.00;0.00;;;;;18.38;100.00;100814.22;6273230;22;59896;-83
2024/03/15 06:12:17;;;;;;;;;0.00;0.00;;;;;18.22;100.00;100823.16;6245600;22;70104;-81
2024/03/15 06:14:42;;;;;;;;;0.00;0.00;;;;;18.24;100.00;100826.53;6273677;22;63467;-81
2024/03/15 06:17:07;;;;;;;;;0.00;0.00;;;;;18.15;100.00;100826.16;6246025;22;62268;-83
2024/03/15 06:19:35;;;;;;;;;0.00;0.00;;;;;18.19;100.00;100840.00;6246021;22;46425;-83
2024/03/15 06:22:00;;;;;;;;;0.00;0.00;;;;;18.18;100.00;100831.25;6245261;22;45437;-82
2024/03/15 06:24:26;;;;;;;;;0.00;0.00;;;;;18.23;100.00;100838.88;6274417;22;45708;-82
2024/03/15 06:26:53;;;;;;;;;3.00;3.00;;;;;18.29;100.00;100841.13;6273520;22;45413;-83
2024/03/15 06:29:20;;;;;;;;;0.00;0.00;;;;;18.33;100.00;100845.31;6246652;22;47011;-83
2024/03/15 06:31:48;;;;;;;;;0.00;0.00;;;;;18.32;100.00;100853.28;6246512;22;45326;-93
2024/03/15 06:34:22;;;;;;;;;0.00;0.00;;;;;18.33;100.00;100850.56;6273889;22;45476;-86
2024/03/15 06:36:49;;;;;;;;;0.00;0.00;;;;;18.37;100.00;100851.25;6271615;22;45711;-84
2024/03/15 06:40:01;;;;;;;;;0.00;0.00;;;;;18.29;100.00;100851.66;6273182;22;46439;-84
2024/03/15 06:42:23;;;;;;;;;0.00;0.00;;;;;18.24;100.00;100852.88;6266253;22;45323;-85
2024/03/15 06:45:08;;;;;;;;;0.00;0.00;;;;;18.24;100.00;100853.75;6224889;22;45386;-83
2024/03/15 06:47:41;;;;;;;;;0.00;0.00;;;;;18.17;100.00;100850.63;6274011;22;45314;-82
2024/03/15 06:50:20;;;;;;;;;0.00;0.00;;;;;18.18;100.00;100848.81;6272465;22;47024;-85
2024/03/15 06:52:46;;;;;;;;;0.00;0.00;;;;;18.31;100.00;100851.59;6272663;22;45306;-84
2024/03/15 06:55:11;;;;;;;;;0.00;0.00;;;;;18.15;100.00;100865.66;6272010;22;45283;-85
2024/03/15 06:57:39;;;;;;;;;0.00;0.00;;;;;18.14;100.00;100858.69;6220347;22;45521;-83
2024/03/15 07:00:17;;;;;;;;;0.00;0.00;;;;;18.18;100.00;100851.47;6273067;22;46065;-88
2024/03/15 07:02:43;;;;;;;;;0.00;0.00;;;;;18.43;100.00;100850.88;6245755;22;45314;-83
2024/03/15 07:05:11;;;;;;;;;0.00;0.00;;;;;18.29;100.00;100861.38;6244933;22;45363;-82
2024/03/15 07:07:42;;;;;;;;;0.00;0.00;;;;;18.28;100.00;100850.00;6272280;22;45475;-84
2024/03/15 07:10:10;;;;;;;;;0.00;0.00;;;;;18.34;100.00;100864.59;6274720;22;45295;-85
2024/03/15 07:12:38;;;;;;;;;0.00;0.00;;;;;18.55;100.00;100863.31;6272682;22;45362;-87
2024/03/15 07:15:11;;;;;;;;;0.00;0.00;;;;;18.24;100.00;100869.56;6241946;22;45497;-84
2024/03/15 07:17:39;;;;;;;;;0.00;0.00;;;;;18.28;100.00;100873.72;6272422;22;45349;-84
2024/03/15 07:20:08;;;;;;;;;0.00;0.00;;;;;18.34;100.00;100869.84;6271104;22;45446;-83
2024/03/15 07:22:34;;;;;;;;;0.00;0.00;;;;;18.28;100.00;100867.59;6245235;22;45387;-84
2024/03/15 07:25:05;;;;;;;;;0.00;0.00;;;;;18.38;100.00;100880.09;6244962;22;45184;-84
2024/03/15 07:27:31;;;;;;;;;0.00;0.00;;;;;18.38;100.00;100874.00;6271532;22;45437;-83
2024/03/15 07:29:57;;;;;;;;;0.00;0.00;;;;;18.51;100.00;100864.41;6244751;22;45422;-84
2024/03/15 07:32:25;;;;;;;;;0.00;0.00;;;;;18.75;100.00;100866.50;6244307;22;45565;-84
2024/03/15 07:34:51;;;;;;;;;0.00;0.00;;;;;18.83;100.00;100874.81;6244606;22;45358;-82
2024/03/15 07:37:16;;;;;;;;;0.00;0.00;;;;;18.76;100.00;100887.53;6272676;22;45171;-83
2024/03/15 07:39:42;;;;;;;;;0.00;0.00;;;;;18.90;100.00;100876.13;6271402;22;45946;-82
2024/03/15 07:42:08;;;;;;;;;0.00;0.00;;;;;18.84;100.00;100879.16;6272555;22;45279;-83
2024/03/15 07:44:33;;;;;;;;;0.00;0.00;;;;;18.84;100.00;100887.06;6272558;22;45310;-85
2024/03/15 07:46:59;;;;;;;;;0.00;0.00;;;;;18.83;100.00;100888.00;6245966;22;45422;-83
2024/03/15 07:49:26;;;;;;;;;0.00;0.00;;;;;18.87;100.00;100876.34;6270859;22;48149;-83
2024/03/15 07:51:53;;;;;;;;;0.00;0.00;;;;;18.84;100.00;100888.88;6273676;22;45232;-84
2024/03/15 07:54:21;;;;;;;;;0.00;0.00;;;;;18.80;100.00;100896.09;6272738;22;45372;-82
2024/03/15 07:56:47;;;;;;;;;0.00;0.00;;;;;18.97;100.00;100894.25;6272712;22;45804;-82
2024/03/15 07:59:13;;;;;;;;;0.00;0.00;;;;;18.98;100.00;100890.66;6272437;22;46056;-85
2024/03/15 08:01:41;;;;;;;;;0.00;0.00;;;;;18.98;100.00;100901.19;6233581;22;45457;-82
2024/03/15 08:04:08;;;;;;;;;0.00;0.00;;;;;19.01;100.00;100888.66;6268844;22;45440;-82
2024/03/15 08:06:34;;;;;;;;;0.00;0.00;;;;;19.14;100.00;100894.88;6269809;22;45339;-81
2024/03/15 08:09:00;;;;;;;;;0.00;0.00;;;;;19.27;100.00;100889.69;6245277;22;45412;-82
2024/03/15 08:11:26;;;;;;;;;0.00;0.00;;;;;19.04;100.00;100888.50;6271068;22;45218;-81
2024/03/15 08:13:51;;;;;;;;;0.00;0.00;;;;;19.25;100.00;100891.56;6269896;22;45346;-82
2024/03/15 08:16:23;;;;;;;;;0.00;0.00;;;;;19.30;100.00;100893.94;6271495;22;49146;-82
2024/03/15 08:18:52;;;;;;;;;0.00;0.00;;;;;19.45;100.00;100897.41;6270223;22;46909;-82
2024/03/15 08:21:18;;;;;;;;;0.00;0.00;;;;;19.54;100.00;100899.44;6218295;22;45961;-82
2024/03/15 08:23:47;;;;;;;;;0.00;0.00;;;;;19.49;100.00;100902.38;6271186;22;45365;-84
2024/03/15 08:26:12;;;;;;;;;0.50;0.50;;;;;19.51;100.00;100904.91;6242966;22;45756;-82
2024/03/15 08:28:40;;;;;;;;;0.25;0.00;;;;;19.50;100.00;100916.41;6271238;22;45382;-84
2024/03/15 08:31:05;;;;;;;;;0.00;0.00;;;;;19.46;100.00;100918.38;6244576;22;45259;-84
2024/03/15 08:33:34;;;;;;;;;0.25;0.00;;;;;19.34;100.00;100921.81;6271223;22;45391;-84
2024/03/15 08:36:00;;;;;;;;;0.00;0.00;;;;;19.45;100.00;100922.00;6271035;22;45310;-84
2024/03/15 08:38:29;;;;;;;;;0.00;0.00;;;;;19.37;100.00;100924.28;6243788;22;46227;-84
2024/03/15 08:40:54;;;;;;;;;0.00;0.00;;;;;19.32;100.00;100929.84;6270948;22;45315;-85
2024/03/15 08:43:25;;;;;;;;;0.00;0.00;;;;;19.24;100.00;100944.44;6270812;22;45365;-84
2024/03/15 08:45:51;;;;;;;;;0.00;0.00;;;;;19.13;100.00;100947.75;6269875;22;57273;-84
2024/03/15 08:48:17;;;;;;;;;0.00;0.00;;;;;19.30;100.00;100929.09;6269995;22;68196;-85
2024/03/15 08:50:46;;;;;;;;;0.00;0.00;;;;;19.26;100.00;100932.88;6270124;22;45895;-84
2024/03/15 08:53:12;;;;;;;;;0.00;0.00;;;;;19.32;100.00;100947.47;6244173;22;45314;-83
2024/03/15 08:55:39;;;;;;;;;1.00;0.00;;;;;19.39;100.00;100946.16;6245019;22;45421;-84
2024/03/15 08:58:04;;;;;;;;;0.25;0.00;;;;;19.49;100.00;100941.97;6270715;22;47000;-84
2024/03/15 09:00:30;;;;;;;;;0.00;0.00;;;;;19.53;100.00;100942.63;6271162;22;46556;-84
2024/03/15 09:02:55;;;;;;;;;0.00;0.00;;;;;19.52;100.00;100948.88;6268920;22;49192;-85
2024/03/15 09:05:21;;;;;;;;;0.00;0.00;;;;;19.73;100.00;100944.88;6271084;22;45411;-84
2024/03/15 09:07:48;;;;;;;;;0.00;0.00;;;;;19.93;100.00;100940.09;6271381;22;46313;-85
2024/03/15 09:10:14;;;;;;;;;0.00;0.00;;;;;20.15;100.00;100939.56;6271246;22;45281;-85
2024/03/15 09:12:41;;;;;;;;;0.00;0.00;;;;;20.00;100.00;100946.69;6243222;22;45282;-84
2024/03/15 09:15:12;;;;;;;;;0.00;0.00;;;;;20.21;100.00;100939.13;6271303;22;45354;-84
2024/03/15 09:17:41;;;;;;;;;0.00;0.00;;;;;20.09;100.00;100940.78;6270482;22;45379;-83
2024/03/15 09:20:20;;;;;;;;;0.00;0.00;;;;;20.06;100.00;100946.28;6243546;22;45370;-83
2024/03/15 09:22:50;;;;;;;;;0.00;0.00;;;;;20.08;100.00;100939.09;6270704;22;45413;-85
2024/03/15 09:25:19;;;;;;;;;0.00;0.00;;;;;20.04;100.00;100934.09;6271652;22;45469;-85
2024/03/15 09:27:48;;;;;;;;;0.00;0.00;;;;;19.98;100.00;100939.78;6270950;22;47164;-85
2024/03/15 09:30:16;;;;;;;;;0.00;0.00;;;;;19.88;100.00;100942.19;6245693;22;45437;-83
2024/03/15 09:32:45;;;;;;;;;0.00;0.00;;;;;19.92;100.00;100947.16;6271441;22;45268;-84
2024/03/15 09:35:17;;;;;;;;;0.00;0.00;;;;;20.15;100.00;100952.78;6244080;22;45792;-84
2024/03/15 09:37:51;;;;;;;;;0.00;0.00;;;;;20.31;100.00;100939.38;6271172;22;47162;-83
2024/03/15 09:40:29;;;;;;;;;0.00;0.00;;;;;20.49;100.00;100943.41;6271517;22;45366;-84
2024/03/15 09:42:55;;;;;;;;;0.00;0.00;;;;;20.65;100.00;100942.41;6272135;22;45361;-85
2024/03/15 09:45:26;;;;;;;;;0.00;0.00;;;;;20.56;100.00;100943.00;6271651;22;45429;-82
2024/03/15 09:47:54;;;;;;;;;0.00;0.00;;;;;20.45;100.00;100946.38;6271891;22;47227;-84
2024/03/15 09:50:29;;;;;;;;;0.00;0.00;;;;;20.51;100.00;100938.03;6245654;22;45791;-86
2024/03/15 09:52:56;;;;;;;;;0.00;0.00;;;;;20.53;100.00;100928.19;6244229;22;45346;-81
2024/03/15 09:55:22;;;;;;;;;0.00;0.00;;;;;20.72;100.00;100938.41;6271807;22;45309;-82
2024/03/15 09:57:50;;;;;;;;;0.00;0.00;;;;;20.76;100.00;100946.97;6268055;22;46429;-82
2024/03/15 10:00:21;;;;;;;;;0.00;0.00;;;;;20.77;100.00;100951.31;6272084;22;45554;-83
2024/03/15 10:02:52;;;;;;;;;0.00;0.00;;;;;20.45;100.00;100947.22;6245180;22;45317;-83
2024/03/15 10:05:34;;;;;;;;;0.00;0.00;;;;;20.74;100.00;100940.94;6244542;22;45304;-82
2024/03/15 10:07:59;;;;;;;;;0.00;0.00;;;;;20.88;100.00;100944.34;6271597;22;47008;-81
2024/03/15 10:10:26;;;;;;;;;0.00;0.00;;;;;20.99;100.00;100945.41;6215059;22;56151;-83
2024/03/15 10:12:51;;;;;;;;;0.00;0.00;;;;;21.13;100.00;100929.38;6271515;22;45410;-82
2024/03/15 10:15:18;;;;;;;;;0.00;0.00;;;;;21.21;100.00;100920.88;6271203;22;61608;-82
2024/03/15 10:17:50;;;;;;;;;0.00;0.00;;;;;21.35;100.00;100919.94;6271618;22;46432;-83
2024/03/15 10:20:24;;;;;;;;;0.00;0.00;;;;;21.10;100.00;100931.41;6238943;22;45628;-83
2024/03/15 10:22:51;;;;;;;;;0.00;0.00;;;;;21.39;100.00;100927.53;6237673;22;45529;-84
2024/03/15 10:25:25;;;;;;;;;0.00;0.00;;;;;21.49;100.00;100927.78;6240950;22;45340;-83
2024/03/15 10:28:01;;;;;;;;;0.00;0.00;;;;;21.50;100.00;100933.91;6267894;22;45364;-82
2024/03/15 10:30:30;;;;;;;;;0.00;0.00;;;;;21.50;100.00;100924.16;6216510;22;45327;-84
2024/03/15 10:32:59;;;;;;;;;0.00;0.00;;;;;21.68;100.00;100934.38;6240162;22;45824;-82
2024/03/15 10:35:24;;;;;;;;;0.00;0.00;;;;;21.97;100.00;100927.78;6240548;22;45326;-83
2024/03/15 10:37:55;;;;;;;;;0.00;0.00;;;;;22.19;100.00;100920.88;6238650;22;46042;-84
2024/03/15 10:40:32;;;;;;;;;0.00;0.00;;;;;22.23;100.00;100932.94;6239859;22;57231;-82
2024/03/15 10:43:08;;;;;;;;;0.00;0.00;;;;;22.46;100.00;100918.00;6239427;22;45417;-82
2024/03/15 10:45:37;;;;;;;;;0.00;0.00;;;;;22.73;100.00;100923.00;6241139;22;45617;-83
2024/03/15 10:48:17;;;;;;;;;0.00;0.00;;;;;22.59;100.00;100934.66;6239246;22;47296;-83
2024/03/15 10:50:44;;;;;;;;;0.00;0.00;;;;;23.20;100.00;100920.25;6240023;22;45429;-82
2024/03/15 10:53:19;;;;;;;;;0.00;0.00;;;;;23.39;100.00;100922.28;6238517;22;45557;-83
2024/03/15 10:55:47;;;;;;;;;0.00;0.00;;;;;23.21;100.00;100923.75;6240513;22;45223;-81
2024/03/15 10:58:15;;;;;;;;;0.00;0.00;;;;;23.22;100.00;100914.84;6236493;22;45654;-84
2024/03/15 11:00:41;;;;;;;;;0.00;0.00;;;;;22.92;100.00;100914.44;6236942;22;45411;-79
2024/03/15 11:03:31;;;;;;;;;0.00;0.00;;;;;23.17;100.00;100915.19;6241259;22;45425;-86
2024/03/15 11:06:21;;;;;;;;;0.00;0.00;;;;;23.12;100.00;100904.94;6241037;22;45260;-87
2024/03/15 11:09:30;;;;;;;;;0.00;0.00;;;;;23.10;100.00;100914.81;6243548;22;45326;-90
2024/03/15 11:12:27;;;;;;;;;;;;;;;;;;;;;
2024/03/15 11:15:20;;;;;;;;;0.00;0.00;;;;;23.10;100.00;100913.97;6240590;22;68007;-86
2024/03/15 11:21:42;;;;;;;;;0.00;0.00;;;;;22.88;100.00;100915.66;6011497;23;46330;-85
2024/03/15 11:24:24;;;;;;;;;0.00;0.00;;;;;22.61;100.00;100906.19;6008968;23;45414;-86
2024/03/15 11:26:51;;;;;;;;;0.00;0.00;;;;;22.45;100.00;100902.19;6026791;23;45438;-89